sensor_id;sensor_type;location;lat;lon;timestamp;temperature;humidity
9323;DHT22;4700;48.822;9.270;2022-08-27T00:01:19;19.10;1.00
9323;DHT22;4700;48.822;9.270;2022-08-27T00:04:05;19.20;1.00
9323;DHT22;4700;48.822;9.270;2022-08-27T00:06:51;19.20;1.00
9323;DHT22;4700;48.822;9.270;2022-08-27T00:09:37;19.20;1.00
9323;DHT22;4700;48.822;9.270;2022-08-27T00:12:22;19.20;1.00
9323;DHT22;4700;48.822;9.270;2022-08-27T00:15:09;19.20;1.00
9323;DHT22;4700;48.822;9.270;2022-08-27T00:17:58;19.20;1.00
9323;DHT22;4700;48.822;9.270;2022-08-27T00:20:44;19.10;1.00
9323;DHT22;4700;48.822;9.270;2022-08-27T00:23:33;19.20;1.00
9323;DHT22;4700;48.822;9.270;2022-08-27T00:26:19;19.10;1.00
9323;DHT22;4700;48.822;9.270;2022-08-27T00:29:04;19.10;1.00
9323;DHT22;4700;48.822;9.270;2022-08-27T00:31:51;19.20;1.00
9323;DHT22;4700;48.822;9.270;2022-08-27T00:34:39;19.20;1.00
9323;DHT22;4700;48.822;9.270;2022-08-27T00:37:25;19.30;1.00
9323;DHT22;4700;48.822;9.270;2022-08-27T00:40:13;19.30;1.00
9323;DHT22;4700;48.822;9.270;2022-08-27T00:43:00;19.30;1.00
9323;DHT22;4700;48.822;9.270;2022-08-27T00:45:46;19.40;1.00
9323;DHT22;4700;48.822;9.270;2022-08-27T00:48:33;19.40;1.00
9323;DHT22;4700;48.822;9.270;2022-08-27T00:51:22;19.40;1.00
9323;DHT22;4700;48.822;9.270;2022-08-27T00:54:09;19.50;1.00
9323;DHT22;4700;48.822;9.270;2022-08-27T00:56:56;19.50;1.00
9323;DHT22;4700;48.822;9.270;2022-08-27T00:59:45;19.50;1.00
9323;DHT22;4700;48.822;9.270;2022-08-27T01:02:31;19.50;1.00
9323;DHT22;4700;48.822;9.270;2022-08-27T01:05:19;19.40;1.00
9323;DHT22;4700;48.822;9.270;2022-08-27T01:08:13;19.40;1.00
9323;DHT22;4700;48.822;9.270;2022-08-27T01:11:00;19.40;1.00
9323;DHT22;4700;48.822;9.270;2022-08-27T01:13:48;19.40;1.00
9323;DHT22;4700;48.822;9.270;2022-08-27T01:16:36;19.40;1.00
9323;DHT22;4700;48.822;9.270;2022-08-27T01:19:19;19.50;1.00
9323;DHT22;4700;48.822;9.270;2022-08-27T01:22:10;19.40;1.00
9323;DHT22;4700;48.822;9.270;2022-08-27T01:25:03;19.40;1.00
9323;DHT22;4700;48.822;9.270;2022-08-27T01:27:50;19.40;1.00
9323;DHT22;4700;48.822;9.270;2022-08-27T01:30:37;19.30;1.00
9323;DHT22;4700;48.822;9.270;2022-08-27T01:33:23;19.30;1.00
9323;DHT22;4700;48.822;9.270;2022-08-27T01:36:09;19.30;1.00
9323;DHT22;4700;48.822;9.270;2022-08-27T01:38:55;19.40;1.00
9323;DHT22;4700;48.822;9.270;2022-08-27T01:41:41;19.40;1.00
9323;DHT22;4700;48.822;9.270;2022-08-27T01:44:27;19.40;1.00
9323;DHT22;4700;48.822;9.270;2022-08-27T01:47:13;19.50;1.00
9323;DHT22;4700;48.822;9.270;2022-08-27T01:50:00;19.50;1.00
9323;DHT22;4700;48.822;9.270;2022-08-27T01:52:46;19.50;1.00
9323;DHT22;4700;48.822;9.270;2022-08-27T01:55:32;19.60;1.00
9323;DHT22;4700;48.822;9.270;2022-08-27T01:58:22;19.60;1.00
9323;DHT22;4700;48.822;9.270;2022-08-27T02:01:11;19.60;1.00
9323;DHT22;4700;48.822;9.270;2022-08-27T02:03:59;19.60;1.00
9323;DHT22;4700;48.822;9.270;2022-08-27T02:06:45;19.60;1.00
9323;DHT22;4700;48.822;9.270;2022-08-27T02:09:31;19.50;1.00
9323;DHT22;4700;48.822;9.270;2022-08-27T02:12:17;19.60;1.00
9323;DHT22;4700;48.822;9.270;2022-08-27T02:15:05;19.60;1.00
9323;DHT22;4700;48.822;9.270;2022-08-27T02:17:51;19.60;1.00
9323;DHT22;4700;48.822;9.270;2022-08-27T02:20:37;19.70;1.00
9323;DHT22;4700;48.822;9.270;2022-08-27T02:23:23;19.70;1.00
9323;DHT22;4700;48.822;9.270;2022-08-27T02:26:09;19.70;1.00
9323;DHT22;4700;48.822;9.270;2022-08-27T02:28:54;19.70;1.00
9323;DHT22;4700;48.822;9.270;2022-08-27T02:31:42;19.70;1.00
9323;DHT22;4700;48.822;9.270;2022-08-27T02:34:27;19.70;1.00
9323;DHT22;4700;48.822;9.270;2022-08-27T02:37:13;19.70;1.00
9323;DHT22;4700;48.822;9.270;2022-08-27T02:39:59;19.70;1.00
9323;DHT22;4700;48.822;9.270;2022-08-27T02:42:46;19.70;1.00
9323;DHT22;4700;48.822;9.270;2022-08-27T02:45:32;19.70;1.00
9323;DHT22;4700;48.822;9.270;2022-08-27T02:48:22;19.80;1.00
9323;DHT22;4700;48.822;9.270;2022-08-27T02:51:09;19.80;1.00
9323;DHT22;4700;48.822;9.270;2022-08-27T02:53:54;19.80;1.00
9323;DHT22;4700;48.822;9.270;2022-08-27T02:56:40;19.80;1.00
9323;DHT22;4700;48.822;9.270;2022-08-27T02:59:25;19.80;1.00
9323;DHT22;4700;48.822;9.270;2022-08-27T03:02:11;19.80;1.00
9323;DHT22;4700;48.822;9.270;2022-08-27T03:04:59;19.80;1.00
9323;DHT22;4700;48.822;9.270;2022-08-27T03:07:45;19.70;1.00
9323;DHT22;4700;48.822;9.270;2022-08-27T03:10:31;19.70;1.00
9323;DHT22;4700;48.822;9.270;2022-08-27T03:13:17;19.70;1.00
9323;DHT22;4700;48.822;9.270;2022-08-27T03:16:03;19.70;1.00
9323;DHT22;4700;48.822;9.270;2022-08-27T03:18:49;19.70;1.00
9323;DHT22;4700;48.822;9.270;2022-08-27T03:21:36;19.70;1.00
9323;DHT22;4700;48.822;9.270;2022-08-27T03:24:22;19.70;1.00
9323;DHT22;4700;48.822;9.270;2022-08-27T03:27:11;19.70;1.00
9323;DHT22;4700;48.822;9.270;2022-08-27T03:29:57;19.60;1.00
9323;DHT22;4700;48.822;9.270;2022-08-27T03:32:43;19.60;1.00
9323;DHT22;4700;48.822;9.270;2022-08-27T03:35:29;19.60;1.00
9323;DHT22;4700;48.822;9.270;2022-08-27T03:38:16;19.50;1.00
9323;DHT22;4700;48.822;9.270;2022-08-27T03:41:03;19.50;1.00
9323;DHT22;4700;48.822;9.270;2022-08-27T03:43:49;19.50;1.00
9323;DHT22;4700;48.822;9.270;2022-08-27T03:46:36;19.50;1.00
9323;DHT22;4700;48.822;9.270;2022-08-27T03:49:22;19.50;1.00
9323;DHT22;4700;48.822;9.270;2022-08-27T03:52:08;19.50;1.00
9323;DHT22;4700;48.822;9.270;2022-08-27T03:54:57;19.50;1.00
9323;DHT22;4700;48.822;9.270;2022-08-27T03:57:42;19.50;1.00
9323;DHT22;4700;48.822;9.270;2022-08-27T04:00:29;19.40;1.00
9323;DHT22;4700;48.822;9.270;2022-08-27T04:03:15;19.40;1.00
9323;DHT22;4700;48.822;9.270;2022-08-27T04:06:00;19.30;1.00
9323;DHT22;4700;48.822;9.270;2022-08-27T04:08:46;19.30;1.00
9323;DHT22;4700;48.822;9.270;2022-08-27T04:11:34;19.30;1.00
9323;DHT22;4700;48.822;9.270;2022-08-27T04:14:19;19.20;1.00
9323;DHT22;4700;48.822;9.270;2022-08-27T04:17:05;19.20;1.00
9323;DHT22;4700;48.822;9.270;2022-08-27T04:19:50;19.20;1.00
9323;DHT22;4700;48.822;9.270;2022-08-27T04:22:37;19.20;1.00
9323;DHT22;4700;48.822;9.270;2022-08-27T04:25:22;19.20;1.00
9323;DHT22;4700;48.822;9.270;2022-08-27T04:28:10;19.20;1.00
9323;DHT22;4700;48.822;9.270;2022-08-27T04:30:56;19.20;1.00
9323;DHT22;4700;48.822;9.270;2022-08-27T04:33:42;19.20;1.00
9323;DHT22;4700;48.822;9.270;2022-08-27T04:36:28;19.10;1.00
9323;DHT22;4700;48.822;9.270;2022-08-27T04:39:14;19.20;1.00
9323;DHT22;4700;48.822;9.270;2022-08-27T04:42:01;19.10;1.00
9323;DHT22;4700;48.822;9.270;2022-08-27T04:44:48;19.00;1.00
9323;DHT22;4700;48.822;9.270;2022-08-27T04:47:36;19.10;1.00
9323;DHT22;4700;48.822;9.270;2022-08-27T04:50:22;19.10;1.00
9323;DHT22;4700;48.822;9.270;2022-08-27T04:53:08;19.10;1.00
9323;DHT22;4700;48.822;9.270;2022-08-27T04:55:55;19.20;1.00
9323;DHT22;4700;48.822;9.270;2022-08-27T04:58:42;19.20;1.00
9323;DHT22;4700;48.822;9.270;2022-08-27T05:01:30;19.20;1.00
9323;DHT22;4700;48.822;9.270;2022-08-27T05:04:17;19.20;1.00
9323;DHT22;4700;48.822;9.270;2022-08-27T05:07:03;19.20;1.00
9323;DHT22;4700;48.822;9.270;2022-08-27T05:09:49;19.30;1.00
9323;DHT22;4700;48.822;9.270;2022-08-27T05:12:35;19.30;1.00
9323;DHT22;4700;48.822;9.270;2022-08-27T05:15:21;19.30;1.00
9323;DHT22;4700;48.822;9.270;2022-08-27T05:18:08;19.40;1.00
9323;DHT22;4700;48.822;9.270;2022-08-27T05:20:54;19.40;1.00
9323;DHT22;4700;48.822;9.270;2022-08-27T05:23:40;19.50;1.00
9323;DHT22;4700;48.822;9.270;2022-08-27T05:26:26;19.50;1.00
9323;DHT22;4700;48.822;9.270;2022-08-27T05:29:12;19.50;1.00
9323;DHT22;4700;48.822;9.270;2022-08-27T05:31:58;19.60;1.00
9323;DHT22;4700;48.822;9.270;2022-08-27T05:34:45;19.60;1.00
9323;DHT22;4700;48.822;9.270;2022-08-27T05:37:31;19.60;1.00
9323;DHT22;4700;48.822;9.270;2022-08-27T05:40:18;19.70;1.00
9323;DHT22;4700;48.822;9.270;2022-08-27T05:43:03;19.70;1.00
9323;DHT22;4700;48.822;9.270;2022-08-27T05:45:52;19.80;1.00
9323;DHT22;4700;48.822;9.270;2022-08-27T05:48:39;19.80;1.00
9323;DHT22;4700;48.822;9.270;2022-08-27T05:51:28;19.90;1.00
9323;DHT22;4700;48.822;9.270;2022-08-27T05:54:17;19.90;1.00
9323;DHT22;4700;48.822;9.270;2022-08-27T05:57:03;20.00;1.00
9323;DHT22;4700;48.822;9.270;2022-08-27T05:59:51;20.00;1.00
9323;DHT22;4700;48.822;9.270;2022-08-27T06:03:06;20.00;1.00
9323;DHT22;4700;48.822;9.270;2022-08-27T06:05:59;20.10;1.00
9323;DHT22;4700;48.822;9.270;2022-08-27T06:08:48;20.10;1.00
9323;DHT22;4700;48.822;9.270;2022-08-27T06:11:34;20.20;1.00
9323;DHT22;4700;48.822;9.270;2022-08-27T06:14:20;20.20;1.00
9323;DHT22;4700;48.822;9.270;2022-08-27T06:17:06;20.20;1.00
9323;DHT22;4700;48.822;9.270;2022-08-27T06:19:52;20.10;1.00
9323;DHT22;4700;48.822;9.270;2022-08-27T06:22:37;20.10;1.00
9323;DHT22;4700;48.822;9.270;2022-08-27T06:25:29;20.10;1.00
9323;DHT22;4700;48.822;9.270;2022-08-27T06:28:19;20.20;1.00
9323;DHT22;4700;48.822;9.270;2022-08-27T06:31:15;20.20;1.00
9323;DHT22;4700;48.822;9.270;2022-08-27T06:34:04;20.30;1.00
9323;DHT22;4700;48.822;9.270;2022-08-27T06:36:50;20.30;1.00
9323;DHT22;4700;48.822;9.270;2022-08-27T06:39:37;20.50;1.00
9323;DHT22;4700;48.822;9.270;2022-08-27T06:42:24;20.60;1.00
9323;DHT22;4700;48.822;9.270;2022-08-27T06:45:10;20.80;1.00
9323;DHT22;4700;48.822;9.270;2022-08-27T06:47:56;20.80;1.00
9323;DHT22;4700;48.822;9.270;2022-08-27T06:50:42;20.80;1.00
9323;DHT22;4700;48.822;9.270;2022-08-27T06:53:28;20.60;1.00
9323;DHT22;4700;48.822;9.270;2022-08-27T06:56:15;20.50;1.00
9323;DHT22;4700;48.822;9.270;2022-08-27T06:59:05;20.30;1.00
9323;DHT22;4700;48.822;9.270;2022-08-27T07:01:51;20.30;1.00
9323;DHT22;4700;48.822;9.270;2022-08-27T07:04:37;20.20;1.00
9323;DHT22;4700;48.822;9.270;2022-08-27T07:07:23;20.30;1.00
9323;DHT22;4700;48.822;9.270;2022-08-27T07:10:09;20.40;1.00
9323;DHT22;4700;48.822;9.270;2022-08-27T07:12:55;20.50;1.00
9323;DHT22;4700;48.822;9.270;2022-08-27T07:15:44;20.60;1.00
9323;DHT22;4700;48.822;9.270;2022-08-27T07:18:29;20.70;1.00
9323;DHT22;4700;48.822;9.270;2022-08-27T07:21:15;20.90;1.00
9323;DHT22;4700;48.822;9.270;2022-08-27T07:24:04;21.20;1.00
9323;DHT22;4700;48.822;9.270;2022-08-27T07:26:52;21.40;1.00
9323;DHT22;4700;48.822;9.270;2022-08-27T07:29:38;21.60;1.00
9323;DHT22;4700;48.822;9.270;2022-08-27T07:32:25;21.70;1.00
9323;DHT22;4700;48.822;9.270;2022-08-27T07:35:11;21.70;1.00
9323;DHT22;4700;48.822;9.270;2022-08-27T07:37:57;21.60;1.00
9323;DHT22;4700;48.822;9.270;2022-08-27T07:40:43;21.50;1.00
9323;DHT22;4700;48.822;9.270;2022-08-27T07:43:28;21.50;1.00
9323;DHT22;4700;48.822;9.270;2022-08-27T07:46:32;21.40;1.00
9323;DHT22;4700;48.822;9.270;2022-08-27T07:49:20;21.30;1.00
9323;DHT22;4700;48.822;9.270;2022-08-27T07:52:06;21.20;1.00
9323;DHT22;4700;48.822;9.270;2022-08-27T07:54:51;21.10;1.00
9323;DHT22;4700;48.822;9.270;2022-08-27T07:57:37;21.00;1.00
9323;DHT22;4700;48.822;9.270;2022-08-27T08:00:23;20.80;1.00
9323;DHT22;4700;48.822;9.270;2022-08-27T08:03:09;20.80;1.00
9323;DHT22;4700;48.822;9.270;2022-08-27T08:06:00;20.70;1.00
9323;DHT22;4700;48.822;9.270;2022-08-27T08:08:46;20.70;1.00
9323;DHT22;4700;48.822;9.270;2022-08-27T08:11:32;20.70;1.00
9323;DHT22;4700;48.822;9.270;2022-08-27T08:14:18;20.60;1.00
9323;DHT22;4700;48.822;9.270;2022-08-27T08:17:04;20.50;1.00
9323;DHT22;4700;48.822;9.270;2022-08-27T08:19:54;20.40;1.00
9323;DHT22;4700;48.822;9.270;2022-08-27T08:22:42;20.30;1.00
9323;DHT22;4700;48.822;9.270;2022-08-27T08:25:28;20.20;1.00
9323;DHT22;4700;48.822;9.270;2022-08-27T08:28:14;20.20;1.00
9323;DHT22;4700;48.822;9.270;2022-08-27T08:31:00;20.00;1.00
9323;DHT22;4700;48.822;9.270;2022-08-27T08:33:46;19.90;1.00
9323;DHT22;4700;48.822;9.270;2022-08-27T08:36:32;19.80;1.00
9323;DHT22;4700;48.822;9.270;2022-08-27T08:39:19;19.80;1.00
9323;DHT22;4700;48.822;9.270;2022-08-27T08:42:07;19.80;1.00
9323;DHT22;4700;48.822;9.270;2022-08-27T08:44:54;19.80;1.00
9323;DHT22;4700;48.822;9.270;2022-08-27T08:47:44;19.70;1.00
9323;DHT22;4700;48.822;9.270;2022-08-27T08:50:35;19.70;1.00
9323;DHT22;4700;48.822;9.270;2022-08-27T08:53:34;19.70;1.00
9323;DHT22;4700;48.822;9.270;2022-08-27T08:56:24;19.80;1.00
9323;DHT22;4700;48.822;9.270;2022-08-27T08:59:17;19.80;1.00
9323;DHT22;4700;48.822;9.270;2022-08-27T09:02:06;19.80;1.00
9323;DHT22;4700;48.822;9.270;2022-08-27T09:04:52;19.70;1.00
9323;DHT22;4700;48.822;9.270;2022-08-27T09:07:43;19.70;1.00
9323;DHT22;4700;48.822;9.270;2022-08-27T09:10:35;19.60;1.00
9323;DHT22;4700;48.822;9.270;2022-08-27T09:13:27;19.60;1.00
9323;DHT22;4700;48.822;9.270;2022-08-27T09:16:15;19.70;1.00
9323;DHT22;4700;48.822;9.270;2022-08-27T09:19:05;19.80;1.00
9323;DHT22;4700;48.822;9.270;2022-08-27T09:21:55;19.90;1.00
9323;DHT22;4700;48.822;9.270;2022-08-27T09:24:50;20.00;1.00
9323;DHT22;4700;48.822;9.270;2022-08-27T09:27:40;20.00;1.00
9323;DHT22;4700;48.822;9.270;2022-08-27T09:30:29;20.00;1.00
9323;DHT22;4700;48.822;9.270;2022-08-27T09:33:15;20.00;1.00
9323;DHT22;4700;48.822;9.270;2022-08-27T09:36:02;20.00;1.00
9323;DHT22;4700;48.822;9.270;2022-08-27T09:38:52;20.10;1.00
9323;DHT22;4700;48.822;9.270;2022-08-27T09:41:42;20.10;1.00
9323;DHT22;4700;48.822;9.270;2022-08-27T09:44:29;20.20;1.00
9323;DHT22;4700;48.822;9.270;2022-08-27T09:47:18;20.20;1.00
9323;DHT22;4700;48.822;9.270;2022-08-27T09:50:07;20.10;1.00
9323;DHT22;4700;48.822;9.270;2022-08-27T09:52:54;20.20;1.00
9323;DHT22;4700;48.822;9.270;2022-08-27T09:55:44;20.30;1.00
9323;DHT22;4700;48.822;9.270;2022-08-27T09:58:50;20.30;1.00
9323;DHT22;4700;48.822;9.270;2022-08-27T10:01:48;20.30;1.00
9323;DHT22;4700;48.822;9.270;2022-08-27T10:04:37;20.30;1.00
9323;DHT22;4700;48.822;9.270;2022-08-27T10:07:34;20.30;1.00
9323;DHT22;4700;48.822;9.270;2022-08-27T10:10:25;20.40;1.00
9323;DHT22;4700;48.822;9.270;2022-08-27T10:13:17;20.30;1.00
9323;DHT22;4700;48.822;9.270;2022-08-27T10:16:13;20.30;1.00
9323;DHT22;4700;48.822;9.270;2022-08-27T10:19:21;20.40;1.00
9323;DHT22;4700;48.822;9.270;2022-08-27T10:22:18;20.50;1.00
9323;DHT22;4700;48.822;9.270;2022-08-27T10:25:18;20.40;1.00
9323;DHT22;4700;48.822;9.270;2022-08-27T10:28:14;20.40;1.00
9323;DHT22;4700;48.822;9.270;2022-08-27T10:31:12;20.40;1.00
9323;DHT22;4700;48.822;9.270;2022-08-27T10:34:12;20.50;1.00
9323;DHT22;4700;48.822;9.270;2022-08-27T10:37:11;20.60;1.00
9323;DHT22;4700;48.822;9.270;2022-08-27T10:40:09;20.60;1.00
9323;DHT22;4700;48.822;9.270;2022-08-27T10:43:16;20.70;1.00
9323;DHT22;4700;48.822;9.270;2022-08-27T10:46:21;20.80;1.00
9323;DHT22;4700;48.822;9.270;2022-08-27T10:49:18;20.80;1.00
9323;DHT22;4700;48.822;9.270;2022-08-27T10:52:13;20.80;1.00
9323;DHT22;4700;48.822;9.270;2022-08-27T10:55:11;20.70;1.00
9323;DHT22;4700;48.822;9.270;2022-08-27T10:58:14;20.70;1.00
9323;DHT22;4700;48.822;9.270;2022-08-27T11:01:09;20.70;1.00
9323;DHT22;4700;48.822;9.270;2022-08-27T11:04:01;20.70;1.00
9323;DHT22;4700;48.822;9.270;2022-08-27T11:06:53;20.70;1.00
9323;DHT22;4700;48.822;9.270;2022-08-27T11:09:44;20.70;1.00
9323;DHT22;4700;48.822;9.270;2022-08-27T11:12:34;20.70;1.00
9323;DHT22;4700;48.822;9.270;2022-08-27T11:15:24;20.60;1.00
9323;DHT22;4700;48.822;9.270;2022-08-27T11:18:15;20.50;1.00
9323;DHT22;4700;48.822;9.270;2022-08-27T11:21:09;20.50;1.00
9323;DHT22;4700;48.822;9.270;2022-08-27T11:24:01;20.40;1.00
9323;DHT22;4700;48.822;9.270;2022-08-27T11:26:49;20.30;1.00
9323;DHT22;4700;48.822;9.270;2022-08-27T11:29:48;20.30;1.00
9323;DHT22;4700;48.822;9.270;2022-08-27T11:32:44;20.40;1.00
9323;DHT22;4700;48.822;9.270;2022-08-27T11:35:42;20.40;1.00
9323;DHT22;4700;48.822;9.270;2022-08-27T11:38:44;20.40;1.00
9323;DHT22;4700;48.822;9.270;2022-08-27T11:41:53;20.40;1.00
9323;DHT22;4700;48.822;9.270;2022-08-27T11:44:46;20.30;1.00
9323;DHT22;4700;48.822;9.270;2022-08-27T11:47:33;20.30;1.00
9323;DHT22;4700;48.822;9.270;2022-08-27T11:50:20;20.40;1.00
9323;DHT22;4700;48.822;9.270;2022-08-27T11:53:07;20.40;1.00
9323;DHT22;4700;48.822;9.270;2022-08-27T11:55:53;20.40;1.00
9323;DHT22;4700;48.822;9.270;2022-08-27T11:58:39;20.40;1.00
9323;DHT22;4700;48.822;9.270;2022-08-27T12:01:28;20.40;1.00
9323;DHT22;4700;48.822;9.270;2022-08-27T12:04:31;20.50;1.00
9323;DHT22;4700;48.822;9.270;2022-08-27T12:07:32;20.50;1.00
9323;DHT22;4700;48.822;9.270;2022-08-27T12:10:28;20.50;1.00
9323;DHT22;4700;48.822;9.270;2022-08-27T12:13:19;20.60;1.00
9323;DHT22;4700;48.822;9.270;2022-08-27T12:16:15;20.50;1.00
9323;DHT22;4700;48.822;9.270;2022-08-27T12:19:27;20.60;1.00
9323;DHT22;4700;48.822;9.270;2022-08-27T12:22:27;20.70;1.00
9323;DHT22;4700;48.822;9.270;2022-08-27T12:25:37;20.80;1.00
9323;DHT22;4700;48.822;9.270;2022-08-27T12:28:24;20.90;1.00
9323;DHT22;4700;48.822;9.270;2022-08-27T12:31:10;21.10;1.00
9323;DHT22;4700;48.822;9.270;2022-08-27T12:34:01;21.20;1.00
9323;DHT22;4700;48.822;9.270;2022-08-27T12:36:49;21.40;1.00
9323;DHT22;4700;48.822;9.270;2022-08-27T12:39:37;21.60;1.00
9323;DHT22;4700;48.822;9.270;2022-08-27T12:42:26;21.80;1.00
9323;DHT22;4700;48.822;9.270;2022-08-27T12:45:20;22.00;1.00
9323;DHT22;4700;48.822;9.270;2022-08-27T12:48:08;22.00;1.00
9323;DHT22;4700;48.822;9.270;2022-08-27T12:50:58;22.10;1.00
9323;DHT22;4700;48.822;9.270;2022-08-27T12:53:49;22.30;1.00
9323;DHT22;4700;48.822;9.270;2022-08-27T12:56:48;22.40;1.00
9323;DHT22;4700;48.822;9.270;2022-08-27T12:59:56;22.50;1.00
9323;DHT22;4700;48.822;9.270;2022-08-27T13:03:00;22.70;1.00
9323;DHT22;4700;48.822;9.270;2022-08-27T13:05:50;23.10;1.00
9323;DHT22;4700;48.822;9.270;2022-08-27T13:08:40;23.60;1.00
9323;DHT22;4700;48.822;9.270;2022-08-27T13:11:29;24.00;1.00
9323;DHT22;4700;48.822;9.270;2022-08-27T13:14:18;24.20;1.00
9323;DHT22;4700;48.822;9.270;2022-08-27T13:17:07;24.40;1.00
9323;DHT22;4700;48.822;9.270;2022-08-27T13:19:57;24.40;1.00
9323;DHT22;4700;48.822;9.270;2022-08-27T13:22:43;24.60;1.00
9323;DHT22;4700;48.822;9.270;2022-08-27T13:25:31;24.90;1.00
9323;DHT22;4700;48.822;9.270;2022-08-27T13:28:21;25.00;1.00
9323;DHT22;4700;48.822;9.270;2022-08-27T13:31:09;24.90;1.00
9323;DHT22;4700;48.822;9.270;2022-08-27T13:33:56;25.00;1.00
9323;DHT22;4700;48.822;9.270;2022-08-27T13:36:52;25.00;1.00
9323;DHT22;4700;48.822;9.270;2022-08-27T13:39:38;25.00;1.00
9323;DHT22;4700;48.822;9.270;2022-08-27T13:42:26;24.90;1.00
9323;DHT22;4700;48.822;9.270;2022-08-27T13:45:16;24.50;1.00
9323;DHT22;4700;48.822;9.270;2022-08-27T13:48:02;24.40;1.00
9323;DHT22;4700;48.822;9.270;2022-08-27T13:50:54;24.20;1.00
9323;DHT22;4700;48.822;9.270;2022-08-27T13:53:43;24.00;1.00
9323;DHT22;4700;48.822;9.270;2022-08-27T13:56:58;24.00;1.00
9323;DHT22;4700;48.822;9.270;2022-08-27T13:59:51;24.10;1.00
9323;DHT22;4700;48.822;9.270;2022-08-27T14:02:38;24.20;1.00
9323;DHT22;4700;48.822;9.270;2022-08-27T14:05:28;24.40;1.00
9323;DHT22;4700;48.822;9.270;2022-08-27T14:08:17;24.40;1.00
9323;DHT22;4700;48.822;9.270;2022-08-27T14:11:05;24.50;1.00
9323;DHT22;4700;48.822;9.270;2022-08-27T14:13:55;24.50;1.00
9323;DHT22;4700;48.822;9.270;2022-08-27T14:16:41;24.50;1.00
9323;DHT22;4700;48.822;9.270;2022-08-27T14:19:30;24.70;1.00
9323;DHT22;4700;48.822;9.270;2022-08-27T14:22:16;24.50;1.00
9323;DHT22;4700;48.822;9.270;2022-08-27T14:25:02;24.40;1.00
9323;DHT22;4700;48.822;9.270;2022-08-27T14:27:50;24.60;1.00
9323;DHT22;4700;48.822;9.270;2022-08-27T14:30:36;24.70;1.00
9323;DHT22;4700;48.822;9.270;2022-08-27T14:33:22;24.80;1.00
9323;DHT22;4700;48.822;9.270;2022-08-27T14:36:10;24.80;1.00
9323;DHT22;4700;48.822;9.270;2022-08-27T14:38:55;24.60;1.00
9323;DHT22;4700;48.822;9.270;2022-08-27T14:41:42;24.60;1.00
9323;DHT22;4700;48.822;9.270;2022-08-27T14:44:28;24.70;1.00
9323;DHT22;4700;48.822;9.270;2022-08-27T14:47:13;24.60;1.00
9323;DHT22;4700;48.822;9.270;2022-08-27T14:50:00;24.40;1.00
9323;DHT22;4700;48.822;9.270;2022-08-27T14:52:47;24.20;1.00
9323;DHT22;4700;48.822;9.270;2022-08-27T14:55:35;24.20;1.00
9323;DHT22;4700;48.822;9.270;2022-08-27T14:58:23;24.10;1.00
9323;DHT22;4700;48.822;9.270;2022-08-27T15:01:12;24.00;1.00
9323;DHT22;4700;48.822;9.270;2022-08-27T15:03:58;24.00;1.00
9323;DHT22;4700;48.822;9.270;2022-08-27T15:06:47;23.90;1.00
9323;DHT22;4700;48.822;9.270;2022-08-27T15:09:34;23.80;1.00
9323;DHT22;4700;48.822;9.270;2022-08-27T15:12:19;23.70;1.00
9323;DHT22;4700;48.822;9.270;2022-08-27T15:15:06;23.60;1.00
9323;DHT22;4700;48.822;9.270;2022-08-27T15:17:52;23.60;1.00
9323;DHT22;4700;48.822;9.270;2022-08-27T15:20:39;23.70;1.00
9323;DHT22;4700;48.822;9.270;2022-08-27T15:23:25;23.70;1.00
9323;DHT22;4700;48.822;9.270;2022-08-27T15:26:12;23.70;1.00
9323;DHT22;4700;48.822;9.270;2022-08-27T15:28:58;23.70;1.00
9323;DHT22;4700;48.822;9.270;2022-08-27T15:31:44;23.80;1.00
9323;DHT22;4700;48.822;9.270;2022-08-27T15:34:33;23.90;1.00
9323;DHT22;4700;48.822;9.270;2022-08-27T15:37:18;23.90;1.00
9323;DHT22;4700;48.822;9.270;2022-08-27T15:40:05;23.80;1.00
9323;DHT22;4700;48.822;9.270;2022-08-27T15:42:55;23.80;1.00
9323;DHT22;4700;48.822;9.270;2022-08-27T15:45:41;23.70;1.00
9323;DHT22;4700;48.822;9.270;2022-08-27T15:48:27;23.70;1.00
9323;DHT22;4700;48.822;9.270;2022-08-27T15:51:16;23.60;1.00
9323;DHT22;4700;48.822;9.270;2022-08-27T15:54:04;23.50;1.00
9323;DHT22;4700;48.822;9.270;2022-08-27T15:56:50;23.60;1.00
9323;DHT22;4700;48.822;9.270;2022-08-27T15:59:37;23.70;1.00
9323;DHT22;4700;48.822;9.270;2022-08-27T16:02:23;23.70;1.00
9323;DHT22;4700;48.822;9.270;2022-08-27T16:05:13;23.60;1.00
9323;DHT22;4700;48.822;9.270;2022-08-27T16:08:03;23.60;1.00
9323;DHT22;4700;48.822;9.270;2022-08-27T16:10:49;23.70;1.00
9323;DHT22;4700;48.822;9.270;2022-08-27T16:13:35;23.60;1.00
9323;DHT22;4700;48.822;9.270;2022-08-27T16:16:24;23.60;1.00
9323;DHT22;4700;48.822;9.270;2022-08-27T16:19:12;23.50;1.00
9323;DHT22;4700;48.822;9.270;2022-08-27T16:21:58;23.30;1.00
9323;DHT22;4700;48.822;9.270;2022-08-27T16:24:44;23.30;1.00
9323;DHT22;4700;48.822;9.270;2022-08-27T16:27:30;23.30;1.00
9323;DHT22;4700;48.822;9.270;2022-08-27T16:30:16;23.30;1.00
9323;DHT22;4700;48.822;9.270;2022-08-27T16:33:04;23.30;1.00
9323;DHT22;4700;48.822;9.270;2022-08-27T16:35:50;23.30;1.00
9323;DHT22;4700;48.822;9.270;2022-08-27T16:38:35;23.30;1.00
9323;DHT22;4700;48.822;9.270;2022-08-27T16:41:21;23.20;1.00
9323;DHT22;4700;48.822;9.270;2022-08-27T16:44:07;23.10;1.00
9323;DHT22;4700;48.822;9.270;2022-08-27T16:46:54;23.10;1.00
9323;DHT22;4700;48.822;9.270;2022-08-27T16:49:41;23.00;1.00
9323;DHT22;4700;48.822;9.270;2022-08-27T16:52:44;22.90;1.00
9323;DHT22;4700;48.822;9.270;2022-08-27T16:55:31;22.70;1.00
9323;DHT22;4700;48.822;9.270;2022-08-27T16:58:19;22.60;1.00
9323;DHT22;4700;48.822;9.270;2022-08-27T17:01:07;22.50;1.00
9323;DHT22;4700;48.822;9.270;2022-08-27T17:03:55;22.40;1.00
9323;DHT22;4700;48.822;9.270;2022-08-27T17:06:43;22.30;1.00
9323;DHT22;4700;48.822;9.270;2022-08-27T17:09:29;22.20;1.00
9323;DHT22;4700;48.822;9.270;2022-08-27T17:12:17;22.10;1.00
9323;DHT22;4700;48.822;9.270;2022-08-27T17:15:06;22.00;1.00
9323;DHT22;4700;48.822;9.270;2022-08-27T17:17:52;21.80;1.00
9323;DHT22;4700;48.822;9.270;2022-08-27T17:20:40;21.70;1.00
9323;DHT22;4700;48.822;9.270;2022-08-27T17:23:31;21.50;1.00
9323;DHT22;4700;48.822;9.270;2022-08-27T17:26:21;21.40;1.00
9323;DHT22;4700;48.822;9.270;2022-08-27T17:29:07;21.20;1.00
9323;DHT22;4700;48.822;9.270;2022-08-27T17:31:53;21.20;1.00
9323;DHT22;4700;48.822;9.270;2022-08-27T17:34:38;21.00;1.00
9323;DHT22;4700;48.822;9.270;2022-08-27T17:37:24;21.00;1.00
9323;DHT22;4700;48.822;9.270;2022-08-27T17:40:12;20.80;1.00
9323;DHT22;4700;48.822;9.270;2022-08-27T17:42:57;20.80;1.00
9323;DHT22;4700;48.822;9.270;2022-08-27T17:45:46;20.70;1.00
9323;DHT22;4700;48.822;9.270;2022-08-27T17:48:33;20.60;1.00
9323;DHT22;4700;48.822;9.270;2022-08-27T17:51:21;20.60;1.00
9323;DHT22;4700;48.822;9.270;2022-08-27T17:54:11;20.50;1.00
9323;DHT22;4700;48.822;9.270;2022-08-27T17:57:08;20.50;1.00
9323;DHT22;4700;48.822;9.270;2022-08-27T17:59:55;20.40;1.00
9323;DHT22;4700;48.822;9.270;2022-08-27T18:02:43;20.30;1.00
9323;DHT22;4700;48.822;9.270;2022-08-27T18:05:29;20.30;1.00
9323;DHT22;4700;48.822;9.270;2022-08-27T18:08:15;20.20;1.00
9323;DHT22;4700;48.822;9.270;2022-08-27T18:11:01;20.10;1.00
9323;DHT22;4700;48.822;9.270;2022-08-27T18:13:54;20.00;1.00
9323;DHT22;4700;48.822;9.270;2022-08-27T18:16:41;19.90;1.00
9323;DHT22;4700;48.822;9.270;2022-08-27T18:19:27;19.90;1.00
9323;DHT22;4700;48.822;9.270;2022-08-27T18:22:13;19.90;1.00
9323;DHT22;4700;48.822;9.270;2022-08-27T18:24:58;19.80;1.00
9323;DHT22;4700;48.822;9.270;2022-08-27T18:27:47;19.80;1.00
9323;DHT22;4700;48.822;9.270;2022-08-27T18:30:35;19.70;1.00
9323;DHT22;4700;48.822;9.270;2022-08-27T18:33:22;19.60;1.00
9323;DHT22;4700;48.822;9.270;2022-08-27T18:36:08;19.60;1.00
9323;DHT22;4700;48.822;9.270;2022-08-27T18:38:54;19.50;1.00